createdAt,value
2022-08-02T00:00:34.046Z,100561.50
2022-08-02T00:03:00.521Z,100558.22
2022-08-02T00:05:27.110Z,100556.78
2022-08-02T00:07:53.650Z,100544.34
2022-08-02T00:10:20.154Z,100545.47
2022-08-02T00:12:46.624Z,100540.84
2022-08-02T00:15:16.072Z,100544.34
2022-08-02T00:17:44.172Z,100545.59
2022-08-02T00:20:11.840Z,100549.19
2022-08-02T00:22:38.637Z,100552.44
2022-08-02T00:25:05.652Z,100553.41
2022-08-02T00:27:32.391Z,100553.16
2022-08-02T00:29:58.908Z,100548.56
2022-08-02T00:32:25.461Z,100551.44
2022-08-02T00:34:52.201Z,100551.59
2022-08-02T00:37:18.859Z,100543.38
2022-08-02T00:39:45.390Z,100539.16
2022-08-02T00:42:15.254Z,100535.16
2022-08-02T00:44:42.332Z,100543.00
2022-08-02T00:47:09.271Z,100538.63
2022-08-02T00:49:35.841Z,100550.31
2022-08-02T00:52:02.752Z,100549.34
2022-08-02T00:54:30.270Z,100552.22
2022-08-02T00:56:56.786Z,100548.13
2022-08-02T00:59:43.381Z,100555.84
2022-08-02T01:02:29.959Z,100552.56
2022-08-02T01:05:16.533Z,100563.75
2022-08-02T01:08:04.341Z,100566.41
2022-08-02T01:10:50.905Z,100566.75
2022-08-02T01:13:37.618Z,100567.22
2022-08-02T01:16:14.885Z,100575.22
2022-08-02T01:18:47.713Z,100574.38
2022-08-02T01:21:20.138Z,100587.31
2022-08-02T01:24:05.534Z,100585.97
2022-08-02T01:26:42.353Z,100583.94
2022-08-02T01:29:16.903Z,100584.06
2022-08-02T01:31:48.723Z,100581.28
2022-08-02T01:34:24.387Z,100588.69
2022-08-02T01:37:21.806Z,100576.50
2022-08-02T01:39:55.685Z,100587.00
2022-08-02T01:42:25.341Z,100579.19
2022-08-02T01:44:53.808Z,100589.41
2022-08-02T01:47:26.380Z,100593.03
2022-08-02T01:49:56.247Z,100581.28
2022-08-02T01:52:26.218Z,100584.38
2022-08-02T01:55:01.091Z,100576.22
2022-08-02T01:57:41.982Z,100569.97
2022-08-02T02:00:10.620Z,100574.41
2022-08-02T02:02:41.596Z,100568.50
2022-08-02T02:05:13.192Z,100568.03
2022-08-02T02:07:42.273Z,100562.78
2022-08-02T02:10:11.899Z,100565.59
2022-08-02T02:12:40.125Z,100568.47
2022-08-02T02:15:11.261Z,100570.91
2022-08-02T02:17:50.528Z,100565.72
2022-08-02T02:20:28.903Z,100576.66
2022-08-02T02:22:55.759Z,100574.63
2022-08-02T02:25:24.336Z,100576.13
2022-08-02T02:28:06.947Z,100579.09
2022-08-02T02:30:34.577Z,100571.63
2022-08-02T02:33:03.241Z,100567.28
2022-08-02T02:35:33.664Z,100558.41
2022-08-02T02:38:01.920Z,100563.06
2022-08-02T02:40:29.198Z,100560.22
2022-08-02T02:42:58.068Z,100553.78
2022-08-02T02:45:25.940Z,100555.78
2022-08-02T02:47:55.078Z,100558.78
2022-08-02T02:50:22.827Z,100555.50
2022-08-02T02:52:50.652Z,100560.56
2022-08-02T02:55:17.934Z,100559.09
2022-08-02T02:57:45.556Z,100559.72
2022-08-02T03:00:13.728Z,100563.31
2022-08-02T03:02:42.513Z,100566.19
2022-08-02T03:05:10.623Z,100569.78
2022-08-02T03:07:37.219Z,100571.16
2022-08-02T03:10:06.461Z,100572.69
2022-08-02T03:12:34.820Z,100578.16
2022-08-02T03:15:07.676Z,100589.69
2022-08-02T03:17:52.597Z,100587.91
2022-08-02T03:20:20.432Z,100598.59
2022-08-02T03:22:47.805Z,100597.41
2022-08-02T03:25:15.932Z,100590.97
2022-08-02T03:27:42.972Z,100595.09
2022-08-02T03:30:11.793Z,100597.97
2022-08-02T03:32:40.587Z,100596.25
2022-08-02T03:35:10.658Z,100597.00
2022-08-02T03:37:37.675Z,100591.81
2022-08-02T03:40:08.117Z,100599.03
2022-08-02T03:42:34.737Z,100602.88
2022-08-02T03:45:08.213Z,100606.25
2022-08-02T03:47:37.552Z,100606.78
2022-08-02T03:50:04.885Z,100594.09
2022-08-02T03:52:33.356Z,100595.56
2022-08-02T03:54:59.955Z,100589.53
2022-08-02T03:57:26.853Z,100580.97
2022-08-02T03:59:53.310Z,100586.81
2022-08-02T04:02:20.035Z,100583.31
2022-08-02T04:04:46.495Z,100587.88
2022-08-02T04:07:13.232Z,100586.41
2022-08-02T04:09:39.823Z,100590.72
2022-08-02T04:12:06.552Z,100600.03
2022-08-02T04:14:35.586Z,100591.56
2022-08-02T04:17:07.300Z,100593.50
2022-08-02T04:19:50.012Z,100594.00
2022-08-02T04:22:21.271Z,100590.63
2022-08-02T04:24:51.859Z,100596.47
2022-08-02T04:27:50.666Z,100594.03
2022-08-02T04:30:08.266Z,100600.16
2022-08-02T04:32:35.573Z,100612.75
2022-08-02T04:38:09.293Z,100600.25
2022-08-02T04:40:36.442Z,100607.78
2022-08-02T04:43:03.021Z,100607.34
2022-08-02T04:45:30.614Z,100601.44
2022-08-02T04:48:05.648Z,100603.84
2022-08-02T04:50:33.520Z,100607.13
2022-08-02T04:53:00.031Z,100608.19
2022-08-02T04:55:28.685Z,100601.19
2022-08-02T04:57:57.281Z,100599.28
2022-08-02T05:00:27.497Z,100604.59
2022-08-02T05:02:56.344Z,100609.66
2022-08-02T05:05:23.228Z,100609.03
2022-08-02T05:07:49.808Z,100611.03
2022-08-02T05:10:16.246Z,100608.59
2022-08-02T05:12:42.799Z,100620.56
2022-08-02T05:15:12.600Z,100615.78
2022-08-02T05:17:40.678Z,100628.69
2022-08-02T05:20:15.964Z,100622.97
2022-08-02T05:22:42.712Z,100625.25
2022-08-02T05:25:10.100Z,100626.97
2022-08-02T05:27:36.757Z,100632.03
2022-08-02T05:30:04.624Z,100622.72
2022-08-02T05:32:31.161Z,100627.59
2022-08-02T05:34:57.832Z,100631.09
2022-08-02T05:37:24.374Z,100628.38
2022-08-02T05:39:55.497Z,100632.53
2022-08-02T05:42:23.551Z,100624.94
2022-08-02T05:44:50.278Z,100630.84
2022-08-02T05:47:16.987Z,100625.22
2022-08-02T05:49:43.487Z,100623.53
2022-08-02T05:52:15.952Z,100624.31
2022-08-02T05:55:15.014Z,100630.94
2022-08-02T05:57:50.511Z,100619.28
2022-08-02T06:00:17.792Z,100624.75
2022-08-02T06:03:16.540Z,100628.25
2022-08-02T06:06:12.432Z,100633.13
2022-08-02T06:08:48.368Z,100634.84
2022-08-02T06:11:17.375Z,100637.22
2022-08-02T06:13:45.930Z,100637.00
2022-08-02T06:16:14.925Z,100636.69
2022-08-02T06:18:43.611Z,100642.50
2022-08-02T06:22:35.790Z,100640.63
2022-08-02T06:23:59.345Z,100635.16
2022-08-02T06:26:29.072Z,100638.94
2022-08-02T06:28:58.181Z,100639.44
2022-08-02T06:31:25.347Z,100636.63
2022-08-02T06:33:52.216Z,100637.75
2022-08-02T06:36:49.437Z,100641.13
2022-08-02T06:39:25.721Z,100642.03
2022-08-02T06:41:54.600Z,100634.03
2022-08-02T06:47:13.270Z,100635.88
2022-08-02T06:49:52.541Z,100645.97
2022-08-02T06:52:33.159Z,100649.50
2022-08-02T06:55:01.636Z,100651.81
2022-08-02T06:57:29.349Z,100651.34
2022-08-02T06:59:56.392Z,100657.16
2022-08-02T07:02:23.247Z,100660.41
2022-08-02T07:04:49.885Z,100653.19
2022-08-02T07:07:16.481Z,100660.41
2022-08-02T07:09:56.311Z,100652.44
2022-08-02T07:12:29.068Z,100653.38
2022-08-02T07:14:55.648Z,100654.34
2022-08-02T07:17:22.359Z,100663.66
2022-08-02T07:19:48.898Z,100662.06
2022-08-02T07:22:15.847Z,100660.13
2022-08-02T07:24:42.539Z,100645.97
2022-08-02T07:27:11.724Z,100649.78
2022-08-02T07:29:44.971Z,100652.19
2022-08-02T07:32:21.224Z,100647.63
2022-08-02T07:34:52.601Z,100643.88
2022-08-02T07:37:53.551Z,100652.75
2022-08-02T07:40:13.799Z,100630.44
2022-08-02T07:42:43.493Z,100641.47
2022-08-02T07:45:11.928Z,100637.00
2022-08-02T07:47:39.837Z,100631.69
2022-08-02T07:50:07.890Z,100642.72
2022-08-02T07:52:34.660Z,100633.22
2022-08-02T07:55:01.244Z,100635.25
2022-08-02T07:57:27.676Z,100634.13
2022-08-02T07:59:54.133Z,100634.00
2022-08-02T08:02:20.627Z,100630.41
2022-08-02T08:04:47.107Z,100622.72
2022-08-02T08:07:13.575Z,100626.91
2022-08-02T08:09:42.070Z,100626.34
2022-08-02T08:12:10.163Z,100621.34
2022-08-02T08:14:38.803Z,100619.19
2022-08-02T08:17:06.406Z,100616.69
2022-08-02T08:19:36.497Z,100616.25
2022-08-02T08:22:21.713Z,100624.38
2022-08-02T08:24:48.922Z,100617.88
2022-08-02T08:27:16.278Z,100621.25
2022-08-02T08:29:43.461Z,100623.66
2022-08-02T08:32:15.792Z,100622.97
2022-08-02T08:34:43.043Z,100620.44
2022-08-02T08:37:09.558Z,100618.69
2022-08-02T08:39:57.803Z,100606.00
2022-08-02T08:42:30.396Z,100608.09
2022-08-02T08:44:58.691Z,100610.59
2022-08-02T08:47:34.812Z,100609.00
2022-08-02T08:50:04.960Z,100618.56
2022-08-02T08:52:35.293Z,100607.22
2022-08-02T08:55:03.507Z,100607.97
2022-08-02T08:57:30.612Z,100610.75
2022-08-02T08:59:57.263Z,100616.09
2022-08-02T09:02:28.057Z,100616.00
2022-08-02T09:04:55.544Z,100610.66
2022-08-02T09:07:23.281Z,100617.22
2022-08-02T09:09:49.856Z,100611.09
2022-08-02T09:12:19.475Z,100618.78
2022-08-02T09:14:46.512Z,100620.03
2022-08-02T09:17:17.818Z,100622.72
2022-08-02T09:19:45.912Z,100613.41
2022-08-02T09:22:15.098Z,100608.78
2022-08-02T09:24:44.332Z,100604.75
2022-08-02T09:27:16.101Z,100595.91
2022-08-02T09:30:12.283Z,100603.44
2022-08-02T09:32:48.249Z,100599.72
2022-08-02T09:36:06.503Z,100593.38
2022-08-02T09:38:18.514Z,100598.56
2022-08-02T09:40:45.228Z,100598.84
2022-08-02T09:43:11.811Z,100595.22
2022-08-02T09:45:38.506Z,100599.94
2022-08-02T09:48:09.195Z,100599.03
2022-08-02T09:50:41.058Z,100593.50
2022-08-02T09:53:14.244Z,100597.06
2022-08-02T09:55:42.175Z,100600.72
2022-08-02T09:58:22.124Z,100596.63
2022-08-02T10:00:56.010Z,100590.81
2022-08-02T10:03:23.031Z,100583.75
2022-08-02T10:06:02.252Z,100597.50
2022-08-02T10:08:32.870Z,100595.56
2022-08-02T10:11:00.787Z,100588.88
2022-08-02T10:13:34.354Z,100594.34
2022-08-02T10:16:02.662Z,100579.38
2022-08-02T10:18:38.822Z,100573.25
2022-08-02T10:21:22.319Z,100573.44
2022-08-02T10:23:50.137Z,100570.31
2022-08-02T10:26:20.688Z,100579.66
2022-08-02T10:28:49.437Z,100573.97
2022-08-02T10:31:28.273Z,100566.94
2022-08-02T10:33:58.552Z,100566.28
2022-08-02T10:36:27.274Z,100558.88
2022-08-02T10:38:55.432Z,100564.78
2022-08-02T10:41:40.887Z,100564.41
2022-08-02T10:44:07.866Z,100550.47
2022-08-02T10:46:51.182Z,100551.41
2022-08-02T10:49:39.746Z,100549.94
2022-08-02T10:52:08.781Z,100541.13
2022-08-02T10:54:41.663Z,100545.38
2022-08-02T10:57:35.392Z,100547.78
2022-08-02T11:00:34.628Z,100541.94
2022-08-02T11:03:01.452Z,100531.94
2022-08-02T11:05:43.284Z,100542.91
2022-08-02T11:08:21.663Z,100535.31
2022-08-02T11:10:48.219Z,100538.75
2022-08-02T11:13:19.692Z,100532.38
2022-08-02T11:16:10.778Z,100530.75
2022-08-02T11:18:44.319Z,100532.13
2022-08-02T11:21:22.120Z,100533.84
2022-08-02T11:23:49.618Z,100527.09
2022-08-02T11:26:31.277Z,100532.13
2022-08-02T11:29:05.282Z,100525.50
2022-08-02T11:31:44.073Z,100526.53
2022-08-02T11:34:36.441Z,100527.09
2022-08-02T11:36:58.911Z,100518.28
2022-08-02T11:39:25.438Z,100510.84
2022-08-02T11:41:55.073Z,100511.47
2022-08-02T11:44:25.499Z,100503.16
2022-08-02T11:47:00.703Z,100501.72
2022-08-02T11:49:29.040Z,100507.28
2022-08-02T11:52:05.330Z,100508.78
2022-08-02T11:54:35.267Z,100497.75
2022-08-02T11:57:20.324Z,100504.13
2022-08-02T11:59:50.173Z,100503.16
2022-08-02T12:02:17.838Z,100504.16
2022-08-02T12:04:53.322Z,100500.63
2022-08-02T12:07:35.015Z,100501.13
2022-08-02T12:10:11.392Z,100511.16
2022-08-02T12:12:54.478Z,100497.34
2022-08-02T12:15:41.490Z,100496.19
2022-08-02T12:18:32.058Z,100505.81
2022-08-02T12:20:59.083Z,100504.44
2022-08-02T12:23:26.343Z,100504.69
2022-08-02T12:26:06.365Z,100511.25
2022-08-02T12:28:39.095Z,100511.88
2022-08-02T12:31:07.599Z,100500.38
2022-08-02T12:33:50.174Z,100506.69
2022-08-02T12:36:21.875Z,100498.69
2022-08-02T12:38:55.473Z,100496.59
2022-08-02T12:41:30.325Z,100497.88
2022-08-02T12:43:59.778Z,100494.88
2022-08-02T12:46:26.761Z,100490.28
2022-08-02T12:49:16.508Z,100483.84
2022-08-02T12:51:55.615Z,100497.56
2022-08-02T12:54:38.282Z,100489.56
2022-08-02T12:57:12.963Z,100478.31
2022-08-02T12:59:42.238Z,100479.28
2022-08-02T13:02:11.581Z,100470.75
2022-08-02T13:04:39.120Z,100469.31
2022-08-02T13:07:06.536Z,100468.28
2022-08-02T13:09:38.621Z,100467.44
2022-08-02T13:12:06.826Z,100473.81
2022-08-02T13:14:39.630Z,100473.59
2022-08-02T13:17:10.039Z,100459.91
2022-08-02T13:19:38.147Z,100473.75
2022-08-02T13:22:05.315Z,100457.31
2022-08-02T13:24:41.080Z,100461.84
2022-08-02T13:27:20.879Z,100453.69
2022-08-02T13:29:48.898Z,100455.53
2022-08-02T13:32:16.474Z,100462.31
2022-08-02T13:34:43.462Z,100443.16
2022-08-02T13:37:10.305Z,100439.72
2022-08-02T13:39:39.942Z,100438.59
2022-08-02T13:42:07.005Z,100440.06
2022-08-02T13:44:34.509Z,100442.84
2022-08-02T13:47:02.213Z,100429.28
2022-08-02T13:49:49.722Z,100432.44
2022-08-02T13:52:16.252Z,100439.19
2022-08-02T13:54:43.192Z,100438.81
2022-08-02T13:57:09.836Z,100431.13
2022-08-02T13:59:58.017Z,100425.38
2022-08-02T14:02:23.209Z,100420.47
2022-08-02T14:04:49.915Z,100420.47
2022-08-02T14:07:16.466Z,100424.28
2022-08-02T14:09:43.572Z,100425.56
2022-08-02T14:12:11.105Z,100431.66
2022-08-02T14:14:37.895Z,100425.88
2022-08-02T14:17:04.417Z,100419.06
2022-08-02T14:19:31.215Z,100422.97
2022-08-02T14:22:11.449Z,100417.28
2022-08-02T14:24:41.338Z,100416.00
2022-08-02T14:27:08.155Z,100414.59
2022-08-02T14:29:34.770Z,100404.72
2022-08-02T14:32:01.684Z,100401.78
2022-08-02T14:34:29.151Z,100401.31
2022-08-02T14:36:56.273Z,100398.84
2022-08-02T14:39:23.002Z,100403.63
2022-08-02T14:41:59.987Z,100401.63
2022-08-02T14:44:30.371Z,100399.28
2022-08-02T14:46:57.366Z,100398.59
2022-08-02T14:49:25.987Z,100397.53
2022-08-02T14:51:53.737Z,100396.78
2022-08-02T14:54:28.129Z,100395.00
2022-08-02T14:57:01.787Z,100392.31
2022-08-02T14:59:29.510Z,100392.03
2022-08-02T15:01:56.072Z,100386.53
2022-08-02T15:04:22.819Z,100383.66
2022-08-02T15:06:49.343Z,100397.34
2022-08-02T15:09:16.034Z,100383.03
2022-08-02T15:11:48.105Z,100382.09
2022-08-02T15:14:21.748Z,100381.59
2022-08-02T15:16:58.400Z,100385.88
2022-08-02T15:19:44.935Z,100388.44
2022-08-02T15:22:16.845Z,100378.38
2022-08-02T15:24:46.900Z,100378.31
2022-08-02T15:27:14.785Z,100382.44
2022-08-02T15:29:43.607Z,100377.81
2022-08-02T15:32:11.216Z,100375.63
2022-08-02T15:34:38.423Z,100376.84
2022-08-02T15:37:04.983Z,100376.28
2022-08-02T15:39:31.669Z,100381.03
2022-08-02T15:41:58.288Z,100376.03
2022-08-02T15:44:24.993Z,100363.63
2022-08-02T15:46:51.785Z,100376.28
2022-08-02T15:49:20.286Z,100366.84
2022-08-02T15:51:46.889Z,100375.09
2022-08-02T15:54:13.313Z,100369.94
2022-08-02T15:56:39.818Z,100368.03
2022-08-02T15:59:06.287Z,100367.53
2022-08-02T16:01:37.832Z,100375.41
2022-08-02T16:04:06.733Z,100366.75
2022-08-02T16:06:34.291Z,100361.31
2022-08-02T16:09:01.278Z,100364.06
2022-08-02T16:11:28.140Z,100357.13
2022-08-02T16:13:55.052Z,100358.09
2022-08-02T16:16:23.442Z,100362.34
2022-08-02T16:18:50.084Z,100366.25
2022-08-02T16:21:16.646Z,100366.56
2022-08-02T16:24:01.600Z,100366.78
2022-08-02T16:26:31.401Z,100367.16
2022-08-02T16:28:59.380Z,100361.41
2022-08-02T16:31:26.097Z,100356.34
2022-08-02T16:33:56.610Z,100354.00
2022-08-02T16:36:24.398Z,100361.06
2022-08-02T16:38:50.876Z,100361.72
2022-08-02T16:41:17.344Z,100361.66
2022-08-02T16:43:43.844Z,100355.25
2022-08-02T16:46:10.374Z,100358.84
2022-08-02T16:48:37.220Z,100354.41
2022-08-02T16:51:04.577Z,100345.72
2022-08-02T16:53:37.237Z,100346.66
2022-08-02T16:56:05.476Z,100348.38
2022-08-02T16:58:31.925Z,100349.53
2022-08-02T17:00:58.484Z,100344.78
2022-08-02T17:03:24.991Z,100337.97
2022-08-02T17:06:11.495Z,100344.06
2022-08-02T17:08:54.138Z,100337.25
2022-08-02T17:11:21.616Z,100335.72
2022-08-02T17:13:50.811Z,100338.91
2022-08-02T17:16:20.524Z,100337.34
2022-08-02T17:18:53.018Z,100339.97
2022-08-02T17:21:19.819Z,100348.22
2022-08-02T17:24:06.073Z,100338.72
2022-08-02T17:26:32.992Z,100335.13
2022-08-02T17:29:17.758Z,100336.88
2022-08-02T17:32:04.768Z,100336.75
2022-08-02T17:34:33.468Z,100338.06
2022-08-02T17:37:00.199Z,100338.34
2022-08-02T17:39:33.796Z,100332.81
2022-08-02T17:42:01.646Z,100335.88
2022-08-02T17:44:36.573Z,100338.97
2022-08-02T17:47:06.506Z,100340.72
2022-08-02T17:49:33.202Z,100340.22
2022-08-02T17:52:49.148Z,100343.00
2022-08-02T17:54:46.315Z,100343.88
2022-08-02T17:57:12.903Z,100344.94
2022-08-02T17:59:41.989Z,100339.09
2022-08-02T18:02:11.486Z,100340.59
2022-08-02T18:04:38.253Z,100339.97
2022-08-02T18:07:09.419Z,100338.47
2022-08-02T18:09:45.069Z,100341.41
2022-08-02T18:12:14.486Z,100335.16
2022-08-02T18:14:46.047Z,100340.72
2022-08-02T18:17:16.892Z,100340.72
2022-08-02T18:19:55.460Z,100342.31
2022-08-02T18:22:26.942Z,100341.63
2022-08-02T18:24:53.910Z,100339.09
2022-08-02T18:27:20.568Z,100346.41
2022-08-02T18:29:47.344Z,100341.78
2022-08-02T18:32:14.117Z,100340.78
2022-08-02T18:34:40.819Z,100343.81
2022-08-02T18:37:14.149Z,100347.72
2022-08-02T18:39:51.169Z,100346.47
2022-08-02T18:42:18.504Z,100343.91
2022-08-02T18:44:45.072Z,100344.78
2022-08-02T18:47:11.584Z,100349.91
2022-08-02T18:49:46.151Z,100347.84
2022-08-02T18:52:14.932Z,100345.34
2022-08-02T18:54:41.966Z,100343.66
2022-08-02T18:59:56.663Z,100344.66
2022-08-02T19:02:31.789Z,100344.06
2022-08-02T19:04:59.938Z,100344.97
2022-08-02T19:07:51.423Z,100339.59
2022-08-02T19:10:13.480Z,100340.63
2022-08-02T19:12:40.257Z,100340.97
2022-08-02T19:15:08.183Z,100338.53
2022-08-02T19:17:55.598Z,100339.75
2022-08-02T19:20:21.157Z,100345.59
2022-08-02T19:22:49.984Z,100344.00
2022-08-02T19:25:20.922Z,100338.44
2022-08-02T19:27:54.958Z,100335.19
2022-08-02T19:30:25.824Z,100349.53
2022-08-02T19:32:59.448Z,100354.41
2022-08-02T19:35:29.757Z,100354.97
2022-08-02T19:38:07.265Z,100354.78
2022-08-02T19:40:33.794Z,100355.69
2022-08-02T19:44:24.050Z,100360.75
2022-08-02T19:45:50.527Z,100357.56
2022-08-02T19:48:23.423Z,100368.75
2022-08-02T19:50:53.514Z,100361.41
2022-08-02T19:53:22.725Z,100360.41
2022-08-02T19:56:01.546Z,100358.91
2022-08-02T19:58:30.461Z,100358.31
2022-08-02T20:00:58.030Z,100362.03
2022-08-02T20:03:39.906Z,100361.44
2022-08-02T20:06:12.340Z,100363.25
2022-08-02T20:08:39.489Z,100363.97
2022-08-02T20:11:06.902Z,100371.22
2022-08-02T20:13:47.165Z,100372.06
2022-08-02T20:16:27.526Z,100370.56
2022-08-02T20:19:05.619Z,100369.44
2022-08-02T20:21:36.982Z,100361.25
2022-08-02T20:24:05.636Z,100364.00
2022-08-02T20:26:35.365Z,100362.81
2022-08-02T20:29:03.652Z,100361.03
2022-08-02T20:31:30.595Z,100355.38
2022-08-02T20:33:57.446Z,100347.81
2022-08-02T20:36:25.484Z,100356.78
2022-08-02T20:38:52.425Z,100348.97
2022-08-02T20:41:22.139Z,100350.28
2022-08-02T20:43:49.310Z,100349.03
2022-08-02T20:46:16.213Z,100356.66
2022-08-02T20:48:44.138Z,100351.38
2022-08-02T20:51:12.375Z,100350.19
2022-08-02T20:53:55.097Z,100348.34
2022-08-02T20:56:23.402Z,100352.31
2022-08-02T20:58:52.095Z,100362.06
2022-08-02T21:01:21.118Z,100357.00
2022-08-02T21:03:58.761Z,100361.13
2022-08-02T21:06:29.762Z,100356.09
2022-08-02T21:08:56.811Z,100367.97
2022-08-02T21:11:33.473Z,100358.53
2022-08-02T21:14:07.877Z,100355.94
2022-08-02T21:16:36.801Z,100356.34
2022-08-02T21:19:08.103Z,100354.31
2022-08-02T21:21:36.892Z,100356.78
2022-08-02T21:24:04.032Z,100360.56
2022-08-02T21:26:32.419Z,100364.22
2022-08-02T21:29:03.989Z,100363.25
2022-08-02T21:31:35.887Z,100357.47
2022-08-02T21:34:19.221Z,100371.78
2022-08-02T21:36:49.670Z,100360.59
2022-08-02T21:39:17.090Z,100360.44
2022-08-02T21:41:46.537Z,100360.72
2022-08-02T21:44:18.723Z,100363.25
2022-08-02T21:46:49.388Z,100359.03
2022-08-02T21:49:17.812Z,100363.69
2022-08-02T21:54:31.639Z,100362.16
2022-08-02T21:57:00.565Z,100356.69
2022-08-02T21:59:27.006Z,100375.06
2022-08-02T22:01:56.924Z,100368.63
2022-08-02T22:04:24.405Z,100373.66
2022-08-02T22:06:50.986Z,100370.88
2022-08-02T22:09:44.107Z,100375.47
2022-08-02T22:12:09.774Z,100379.69
2022-08-02T22:14:39.447Z,100382.06
2022-08-02T22:17:09.108Z,100386.41
2022-08-02T22:19:40.073Z,100391.72
2022-08-02T22:22:20.336Z,100390.63
2022-08-02T22:24:46.802Z,100388.63
2022-08-02T22:27:14.100Z,100386.69
2022-08-02T22:29:40.626Z,100390.63
2022-08-02T22:32:07.315Z,100391.59
2022-08-02T22:34:51.256Z,100394.25
2022-08-02T22:38:15.235Z,100391.44
2022-08-02T22:40:08.609Z,100387.63
2022-08-02T22:42:53.933Z,100397.56
2022-08-02T22:45:22.223Z,100392.25
2022-08-02T22:47:50.814Z,100393.31
2022-08-02T22:50:19.084Z,100387.16
2022-08-02T22:52:46.802Z,100388.78
2022-08-02T22:55:17.777Z,100394.56
2022-08-02T22:57:56.296Z,100392.03
2022-08-02T22:58:46.368Z,100343.94
2022-08-02T22:59:03.619Z,100355.69
2022-08-02T23:00:25.106Z,100391.91
2022-08-02T23:02:51.738Z,100393.72
2022-08-02T23:05:18.452Z,100392.44
2022-08-02T23:07:45.186Z,100389.38
2022-08-02T23:10:11.698Z,100394.25
2022-08-02T23:12:38.256Z,100396.72
2022-08-02T23:15:05.174Z,100394.97
2022-08-02T23:17:50.086Z,100392.78
2022-08-02T23:20:20.116Z,100396.13
2022-08-02T23:22:46.586Z,100396.41
2022-08-02T23:25:14.510Z,100395.75
2022-08-02T23:27:49.663Z,100393.53
2022-08-02T23:30:17.213Z,100395.22
2022-08-02T23:32:43.756Z,100394.00
2022-08-02T23:35:10.575Z,100397.31
2022-08-02T23:37:59.786Z,100396.53
2022-08-02T23:40:38.818Z,100400.66
2022-08-02T23:43:14.686Z,100402.44
2022-08-02T23:45:48.413Z,100403.06
2022-08-02T23:48:15.049Z,100407.09
2022-08-02T23:50:41.519Z,100405.22
2022-08-02T23:53:08.014Z,100410.22
2022-08-02T23:55:34.669Z,100412.88
2022-08-02T23:58:01.116Z,100413.25
